RJAW/IWO METAR and TAF weather

Enter ICAO airport designator
Station Type Date Time Source
RJAW METAR 2020/02/29 02:00 UTC NOAA

RJAW 290200Z 10010KT 070V130 9999 FEW040 SCT230 22/12 Q1019 RMK 2SC040 A3011


Station Type Date Time Source
RJAW Decoded METAR 2020/02/29 02:00 UTC NOAA

Iwojima, Japan (RJAW) 24-47N 141-19E 116M
Feb 28, 2020 - 09:00 PM EST / 2020.02.29 0200 UTC
Wind: from the E (100 degrees) at 12 MPH (10 KT) (direction variable):0
Visibility: greater than 7 mile(s):0
Sky conditions: partly cloudy
Temperature: 71 F (22 C)
Dew Point: 53 F (12 C)
Relative Humidity: 53%
Pressure (altimeter): 30.09 in. Hg (1019 hPa)
ob: RJAW 290200Z 10010KT 070V130 9999 FEW040 SCT230 22/12 Q1019 RMK 2SC040 A3011
cycle: 2

Station Type Date Time Source
RJAW TAF UTC NOAA

Error!

Example: see airport list